createdAt,value
2019-05-07T00:00:47.521Z,98010.92
2019-05-07T00:03:18.011Z,98013.58
2019-05-07T00:05:47.472Z,98014.52
2019-05-07T00:08:22.777Z,98018.22
2019-05-07T00:10:52.917Z,98013.77
2019-05-07T00:13:23.390Z,98013.92
2019-05-07T00:15:52.939Z,98014.80
2019-05-07T00:18:22.928Z,98018.19
2019-05-07T00:20:53.887Z,98021.52
2019-05-07T00:23:24.284Z,98012.05
2019-05-07T00:25:54.687Z,98015.78
2019-05-07T00:28:24.101Z,98018.86
2019-05-07T00:30:53.559Z,98018.13
2019-05-07T00:33:23.720Z,98020.72
2019-05-07T00:35:56.315Z,98014.44
2019-05-07T00:38:26.731Z,98022.09
2019-05-07T00:40:59.945Z,98020.97
2019-05-07T00:43:32.248Z,98020.08
2019-05-07T00:46:04.490Z,98010.70
2019-05-07T00:48:33.880Z,98011.58
2019-05-07T00:51:22.652Z,98017.56
2019-05-07T00:53:52.451Z,98009.53
2019-05-07T00:56:22.291Z,98009.53
2019-05-07T00:58:52.734Z,98001.85
2019-05-07T01:01:24.755Z,98006.34
2019-05-07T01:03:54.182Z,98005.22
2019-05-07T01:06:26.586Z,98006.35
2019-05-07T01:08:56.856Z,98003.80
2019-05-07T01:11:30.395Z,98001.08
2019-05-07T01:14:02.757Z,98004.77
2019-05-07T01:16:33.216Z,98009.48
2019-05-07T01:19:02.606Z,98009.44
2019-05-07T01:21:36.196Z,98007.03
2019-05-07T01:24:06.813Z,98013.27
2019-05-07T01:26:39.104Z,98015.89
2019-05-07T01:29:09.501Z,98018.56
2019-05-07T01:31:45.025Z,98012.28
2019-05-07T01:34:23.142Z,98012.69
2019-05-07T01:36:54.295Z,98012.05
2019-05-07T01:39:23.710Z,98007.58
2019-05-07T01:41:52.580Z,98010.30
2019-05-07T01:44:23.012Z,98008.84
2019-05-07T01:46:53.034Z,98002.25
2019-05-07T01:49:24.164Z,97999.48
2019-05-07T01:51:54.535Z,98003.00
2019-05-07T01:54:25.483Z,98005.38
2019-05-07T01:56:57.957Z,98004.44
2019-05-07T01:59:28.379Z,98006.70
2019-05-07T02:02:02.874Z,98011.48
2019-05-07T02:04:39.200Z,98005.39
2019-05-07T02:07:17.027Z,98005.39
2019-05-07T02:09:52.233Z,98003.19
2019-05-07T02:12:31.962Z,98008.60
2019-05-07T02:15:02.776Z,98008.87
2019-05-07T02:17:33.286Z,98002.36
2019-05-07T02:20:02.829Z,98003.42
2019-05-07T02:22:32.219Z,98002.61
2019-05-07T02:25:04.589Z,97995.69
2019-05-07T02:27:35.062Z,98000.89
2019-05-07T02:30:06.444Z,97997.55
2019-05-07T02:32:35.862Z,98000.44
2019-05-07T02:35:09.345Z,98000.89
2019-05-07T02:37:48.491Z,97999.52
2019-05-07T02:40:24.884Z,98000.07
2019-05-07T02:42:57.272Z,98000.42
2019-05-07T02:45:29.559Z,98004.10
2019-05-07T02:47:58.941Z,98000.08
2019-05-07T02:50:29.081Z,98001.09
2019-05-07T02:53:04.392Z,98002.03
2019-05-07T02:55:39.281Z,98001.11
2019-05-07T02:58:08.758Z,97994.66
2019-05-07T03:00:37.738Z,97996.52
2019-05-07T03:03:07.214Z,97995.57
2019-05-07T03:05:36.735Z,97993.05
2019-05-07T03:08:12.920Z,97993.13
2019-05-07T03:10:43.464Z,97997.17
2019-05-07T03:13:13.805Z,97995.77
2019-05-07T03:15:43.988Z,97994.98
2019-05-07T03:18:13.974Z,97994.64
2019-05-07T03:20:48.724Z,97993.81
2019-05-07T03:23:22.602Z,97988.86
2019-05-07T03:25:54.142Z,97996.00
2019-05-07T03:28:24.852Z,97996.13
2019-05-07T03:31:06.418Z,97996.77
2019-05-07T03:33:38.810Z,98000.69
2019-05-07T03:36:15.962Z,98000.37
2019-05-07T03:38:44.421Z,98005.55
2019-05-07T03:41:13.862Z,97996.42
2019-05-07T03:43:43.618Z,98003.45
2019-05-07T03:46:15.851Z,97993.45
2019-05-07T03:48:47.547Z,97993.20
2019-05-07T03:51:17.052Z,97996.17
2019-05-07T03:53:46.499Z,97995.52
2019-05-07T03:56:18.303Z,98003.57
2019-05-07T03:58:52.966Z,97996.59
2019-05-07T04:01:24.081Z,97995.81
2019-05-07T04:03:54.331Z,97997.08
2019-05-07T04:06:24.752Z,97997.43
2019-05-07T04:08:57.021Z,97996.63
2019-05-07T04:11:29.118Z,97989.16
2019-05-07T04:14:02.671Z,97987.97
2019-05-07T04:16:33.342Z,97986.70
2019-05-07T04:19:03.902Z,97989.50
2019-05-07T04:21:34.385Z,97988.89
2019-05-07T04:24:23.489Z,97992.38
2019-05-07T04:27:06.351Z,97991.98
2019-05-07T04:29:37.036Z,97992.81
2019-05-07T04:32:08.073Z,97998.39
2019-05-07T04:34:53.224Z,98002.73
2019-05-07T04:37:24.959Z,98003.01
2019-05-07T04:39:55.407Z,98006.38
2019-05-07T04:42:25.343Z,98002.11
2019-05-07T04:44:55.773Z,98000.95
2019-05-07T04:47:38.653Z,97998.00
2019-05-07T04:49:57.610Z,98001.47
2019-05-07T04:52:37.692Z,97998.49
2019-05-07T04:55:08.684Z,98001.12
2019-05-07T04:57:38.742Z,97994.75
2019-05-07T05:00:13.495Z,97989.26
2019-05-07T05:02:52.971Z,97986.20
2019-05-07T05:05:23.849Z,97984.16
2019-05-07T05:07:54.376Z,97986.10
2019-05-07T05:10:24.771Z,97984.69
2019-05-07T05:12:55.388Z,97990.48
2019-05-07T05:15:25.467Z,97992.02
2019-05-07T05:17:55.777Z,97992.56
2019-05-07T05:20:26.734Z,97990.28
2019-05-07T05:23:03.806Z,97988.66
2019-05-07T05:25:43.653Z,97992.61
2019-05-07T05:28:13.634Z,97997.41
2019-05-07T05:30:49.009Z,97998.55
2019-05-07T05:33:23.498Z,97978.84
2019-05-07T05:35:54.111Z,98005.55
2019-05-07T05:38:26.182Z,98011.70
2019-05-07T05:40:55.593Z,98003.52
2019-05-07T05:43:26.514Z,98001.14
2019-05-07T05:46:03.144Z,98005.06
2019-05-07T05:48:34.593Z,98005.38
2019-05-07T05:51:12.643Z,98001.36
2019-05-07T05:53:55.807Z,98002.96
2019-05-07T05:56:26.230Z,98000.00
2019-05-07T05:58:56.793Z,98001.61
2019-05-07T06:01:34.509Z,98008.62
2019-05-07T06:04:18.703Z,98009.63
2019-05-07T06:07:07.688Z,98009.74
2019-05-07T06:09:32.931Z,98009.08
2019-05-07T06:12:13.642Z,98006.02
2019-05-07T06:15:01.792Z,98004.80
2019-05-07T06:17:33.975Z,98005.40
2019-05-07T06:20:07.928Z,98002.99
2019-05-07T06:22:52.885Z,98006.33
2019-05-07T06:25:25.516Z,98003.08
2019-05-07T06:27:56.797Z,98004.19
2019-05-07T06:30:27.217Z,98001.59
2019-05-07T06:33:02.782Z,97994.50
2019-05-07T06:35:33.041Z,98003.95
2019-05-07T06:38:03.223Z,98000.82
2019-05-07T06:40:38.346Z,97998.71
2019-05-07T06:43:13.015Z,97998.41
2019-05-07T06:45:48.024Z,97990.94
2019-05-07T06:48:17.557Z,98000.25
2019-05-07T06:50:58.264Z,97996.67
2019-05-07T06:53:34.798Z,98006.34
2019-05-07T06:56:04.841Z,98004.19
2019-05-07T06:58:41.922Z,98001.81
2019-05-07T07:01:28.126Z,98000.92
2019-05-07T07:04:02.392Z,98000.78
2019-05-07T07:06:52.530Z,97998.90
2019-05-07T07:09:24.556Z,97996.63
2019-05-07T07:12:03.514Z,97995.25
2019-05-07T07:14:33.298Z,97989.63
2019-05-07T07:17:03.801Z,97984.39
2019-05-07T07:19:36.299Z,97979.37
2019-05-07T07:22:07.571Z,97985.05
2019-05-07T07:24:38.154Z,97980.73
2019-05-07T07:27:08.986Z,97967.09
2019-05-07T07:29:49.721Z,97967.84
2019-05-07T07:32:23.518Z,97962.55
2019-05-07T07:34:55.130Z,97961.54
2019-05-07T07:37:43.095Z,97957.69
2019-05-07T07:40:25.187Z,97953.02
2019-05-07T07:42:56.019Z,97955.67
2019-05-07T07:45:32.413Z,97954.75
2019-05-07T07:48:02.381Z,97954.25
2019-05-07T07:50:33.239Z,97953.40
2019-05-07T07:53:03.590Z,97956.09
2019-05-07T07:55:35.778Z,97950.78
2019-05-07T07:58:17.346Z,97942.42
2019-05-07T08:00:57.465Z,97948.29
2019-05-07T08:03:27.893Z,97947.45
2019-05-07T08:05:58.285Z,97940.52
2019-05-07T08:08:28.684Z,97940.96
2019-05-07T08:11:02.389Z,97926.17
2019-05-07T08:13:32.527Z,97929.97
2019-05-07T08:16:03.451Z,97928.66
2019-05-07T08:18:33.080Z,97919.63
2019-05-07T08:21:02.809Z,97916.22
2019-05-07T08:23:33.238Z,97910.44
2019-05-07T08:26:04.026Z,97908.17
2019-05-07T08:28:35.685Z,97905.86
2019-05-07T08:31:24.806Z,97906.22
2019-05-07T08:33:55.963Z,97901.00
2019-05-07T08:36:25.329Z,97906.02
2019-05-07T08:38:56.462Z,97902.64
2019-05-07T08:41:28.716Z,97901.58
2019-05-07T08:44:11.445Z,97899.92
2019-05-07T08:46:56.690Z,97911.88
2019-05-07T08:49:36.803Z,97908.26
2019-05-07T08:52:03.487Z,97898.17
2019-05-07T08:54:34.474Z,97896.97
2019-05-07T08:57:06.354Z,97901.84
2019-05-07T08:59:37.387Z,97899.30
2019-05-07T09:02:07.237Z,97904.64
2019-05-07T09:04:37.661Z,97899.89
2019-05-07T09:07:08.067Z,97894.83
2019-05-07T09:09:38.995Z,97894.83
2019-05-07T09:12:08.402Z,97891.84
2019-05-07T09:14:37.727Z,97867.61
2019-05-07T09:17:08.122Z,97897.47
2019-05-07T09:19:50.387Z,97895.44
2019-05-07T09:22:12.667Z,97895.64
2019-05-07T09:24:43.746Z,97899.13
2019-05-07T09:27:16.011Z,97891.48
2019-05-07T09:29:57.281Z,97889.98
2019-05-07T09:32:29.563Z,97889.72
2019-05-07T09:35:16.772Z,97887.10
2019-05-07T09:37:50.223Z,97893.03
2019-05-07T09:40:22.401Z,97890.34
2019-05-07T09:42:52.665Z,97892.13
2019-05-07T09:45:22.632Z,97890.20
2019-05-07T09:47:54.513Z,97877.62
2019-05-07T09:50:25.069Z,97875.37
2019-05-07T09:52:55.602Z,97880.39
2019-05-07T09:55:25.260Z,97874.98
2019-05-07T09:57:56.821Z,97874.85
2019-05-07T10:00:27.923Z,97866.00
2019-05-07T10:03:02.945Z,97871.53
2019-05-07T10:05:35.342Z,97873.14
2019-05-07T10:08:04.815Z,97867.70
2019-05-07T10:10:35.206Z,97865.56
2019-05-07T10:13:09.309Z,97866.16
2019-05-07T10:15:41.843Z,97865.98
2019-05-07T10:18:17.241Z,97868.48
2019-05-07T10:20:47.900Z,97859.86
2019-05-07T10:23:23.462Z,97857.77
2019-05-07T10:25:54.625Z,97859.86
2019-05-07T10:28:24.871Z,97852.97
2019-05-07T10:30:54.038Z,97851.27
2019-05-07T10:33:24.641Z,97858.91
2019-05-07T10:35:56.752Z,97848.19
2019-05-07T10:38:26.112Z,97843.09
2019-05-07T10:40:59.603Z,97839.92
2019-05-07T10:43:29.226Z,97840.10
2019-05-07T10:46:16.333Z,97835.85
2019-05-07T10:48:48.262Z,97839.55
2019-05-07T10:51:17.730Z,97830.22
2019-05-07T10:53:48.152Z,97834.81
2019-05-07T10:56:18.549Z,97825.61
2019-05-07T10:58:49.596Z,97823.81
2019-05-07T11:01:22.402Z,97822.39
2019-05-07T11:03:51.839Z,97820.09
2019-05-07T11:06:22.577Z,97826.06
2019-05-07T11:08:52.971Z,97831.81
2019-05-07T11:11:22.452Z,97821.03
2019-05-07T11:13:55.764Z,97824.40
2019-05-07T11:16:24.616Z,97821.36
2019-05-07T11:18:58.562Z,97818.73
2019-05-07T11:21:33.637Z,97813.97
2019-05-07T11:24:03.567Z,97816.97
2019-05-07T11:26:34.479Z,97812.39
2019-05-07T11:29:03.886Z,97803.91
2019-05-07T11:31:36.333Z,97801.62
2019-05-07T11:34:07.485Z,97797.90
2019-05-07T11:36:38.242Z,97799.50
2019-05-07T11:39:09.547Z,97792.09
2019-05-07T11:41:42.303Z,97790.13
2019-05-07T11:44:15.377Z,97785.17
2019-05-07T11:47:04.987Z,97784.64
2019-05-07T11:49:53.039Z,97778.70
2019-05-07T11:52:26.465Z,97781.55
2019-05-07T11:54:55.731Z,97783.21
2019-05-07T11:57:26.144Z,97770.63
2019-05-07T11:59:56.444Z,97769.82
2019-05-07T12:02:26.863Z,97761.47
2019-05-07T12:04:58.823Z,97765.92
2019-05-07T12:07:29.222Z,97756.02
2019-05-07T12:09:57.956Z,97760.63
2019-05-07T12:12:28.360Z,97755.88
2019-05-07T12:14:57.200Z,97751.13
2019-05-07T12:17:27.712Z,97753.91
2019-05-07T12:19:58.011Z,97752.52
2019-05-07T12:22:31.806Z,97752.23
2019-05-07T12:25:02.659Z,97748.36
2019-05-07T12:27:32.405Z,97749.19
2019-05-07T12:30:01.767Z,97754.32
2019-05-07T12:32:33.904Z,97749.12
2019-05-07T12:35:05.129Z,97749.27
2019-05-07T12:37:35.465Z,97739.61
2019-05-07T12:40:08.925Z,97746.39
2019-05-07T12:42:38.489Z,97745.61
2019-05-07T12:45:08.069Z,97733.80
2019-05-07T12:47:36.959Z,97728.14
2019-05-07T12:50:07.596Z,97728.59
2019-05-07T12:52:42.460Z,97726.05
2019-05-07T12:55:23.174Z,97729.44
2019-05-07T12:57:53.942Z,97728.42
2019-05-07T13:00:47.117Z,97723.42
2019-05-07T13:03:21.850Z,97721.52
2019-05-07T13:05:52.436Z,97725.13
2019-05-07T13:08:23.482Z,97723.65
2019-05-07T13:10:52.873Z,97723.69
2019-05-07T13:13:23.439Z,97718.66
2019-05-07T13:15:54.184Z,97718.68
2019-05-07T13:18:22.983Z,97708.84
2019-05-07T13:20:54.327Z,97704.59
2019-05-07T13:23:23.843Z,97713.11
2019-05-07T13:25:54.310Z,97701.08
2019-05-07T13:28:24.738Z,97701.08
2019-05-07T13:30:56.334Z,97693.45
2019-05-07T13:33:26.984Z,97690.87
2019-05-07T13:35:57.877Z,97697.06
2019-05-07T13:38:32.471Z,97697.06
2019-05-07T13:41:12.619Z,97692.39
2019-05-07T13:44:02.859Z,97693.63
2019-05-07T13:46:35.697Z,97695.66
2019-05-07T13:49:06.292Z,97690.09
2019-05-07T13:51:37.363Z,97693.02
2019-05-07T13:54:06.849Z,97697.20
2019-05-07T13:56:37.552Z,97693.89
2019-05-07T13:59:13.149Z,97690.14
2019-05-07T14:01:43.919Z,97682.11
2019-05-07T14:04:15.290Z,97674.54
2019-05-07T14:06:49.367Z,97675.97
2019-05-07T14:09:23.976Z,97677.11
2019-05-07T14:11:56.026Z,97670.81
2019-05-07T14:14:24.962Z,97671.59
2019-05-07T14:16:55.600Z,97665.64
2019-05-07T14:19:28.910Z,97662.45
2019-05-07T14:22:13.909Z,97665.98
2019-05-07T14:24:35.257Z,97666.26
2019-05-07T14:27:05.797Z,97667.17
2019-05-07T14:29:36.232Z,97655.14
2019-05-07T14:32:14.313Z,97657.05
2019-05-07T14:35:02.136Z,97655.91
2019-05-07T14:37:33.292Z,97652.75
2019-05-07T14:40:03.699Z,97655.04
2019-05-07T14:42:38.408Z,97648.84
2019-05-07T14:45:10.128Z,97652.39
2019-05-07T14:47:44.396Z,97655.55
2019-05-07T14:50:12.749Z,97649.55
2019-05-07T14:52:44.853Z,97647.41
2019-05-07T14:55:15.738Z,97648.92
2019-05-07T14:57:45.233Z,97645.06
2019-05-07T15:00:15.097Z,97645.27
2019-05-07T15:02:44.711Z,97642.23
2019-05-07T15:05:15.693Z,97636.74
2019-05-07T15:07:47.768Z,97643.56
2019-05-07T15:10:17.396Z,97636.56
2019-05-07T15:12:48.787Z,97636.12
2019-05-07T15:15:18.568Z,97641.44
2019-05-07T15:17:53.465Z,97635.45
2019-05-07T15:20:23.613Z,97640.66
2019-05-07T15:22:55.735Z,97640.30
2019-05-07T15:25:25.259Z,97645.48
2019-05-07T15:27:54.608Z,97643.16
2019-05-07T15:30:26.742Z,97642.62
2019-05-07T15:32:56.111Z,97642.06
2019-05-07T15:35:27.037Z,97643.14
2019-05-07T15:37:56.564Z,97632.61
2019-05-07T15:40:26.433Z,97638.86
2019-05-07T15:42:56.891Z,97642.05
2019-05-07T15:45:27.615Z,97630.66
2019-05-07T15:47:59.586Z,97633.81
2019-05-07T15:50:32.228Z,97636.23
2019-05-07T15:53:07.193Z,97637.03
2019-05-07T15:55:36.766Z,97634.62
2019-05-07T15:58:06.513Z,97638.82
2019-05-07T16:00:38.924Z,97633.66
2019-05-07T16:03:24.947Z,97633.05
2019-05-07T16:05:55.305Z,97621.88
2019-05-07T16:08:28.833Z,97626.47
2019-05-07T16:10:59.321Z,97623.48
2019-05-07T16:13:36.169Z,97621.88
2019-05-07T16:16:05.390Z,97625.66
2019-05-07T16:18:42.268Z,97617.91
2019-05-07T16:21:12.081Z,97618.50
2019-05-07T16:23:41.654Z,97619.09
2019-05-07T16:26:12.899Z,97618.47
2019-05-07T16:28:45.553Z,97620.27
2019-05-07T16:31:16.063Z,97613.28
2019-05-07T16:33:45.263Z,97619.45
2019-05-07T16:36:15.622Z,97621.83
2019-05-07T16:38:45.213Z,97621.95
2019-05-07T16:41:15.698Z,97615.59
2019-05-07T16:43:46.114Z,97621.51
2019-05-07T16:46:16.510Z,97625.84
2019-05-07T16:48:45.881Z,97628.03
2019-05-07T16:51:16.381Z,97626.20
2019-05-07T16:53:45.687Z,97621.60
2019-05-07T16:56:15.330Z,97620.30
2019-05-07T16:58:47.429Z,97621.88
2019-05-07T17:01:18.009Z,97621.27
2019-05-07T17:03:52.566Z,97614.87
2019-05-07T17:06:25.038Z,97617.38
2019-05-07T17:08:58.099Z,97615.38
2019-05-07T17:11:32.077Z,97612.41
2019-05-07T17:14:06.324Z,97609.78
2019-05-07T17:16:37.051Z,97612.64
2019-05-07T17:19:11.813Z,97604.27
2019-05-07T17:21:43.208Z,97605.13
2019-05-07T17:24:13.797Z,97609.98
2019-05-07T17:26:43.196Z,97613.09
2019-05-07T17:29:13.565Z,97603.48
2019-05-07T17:31:42.926Z,97606.34
2019-05-07T17:34:11.955Z,97609.45
2019-05-07T17:36:42.192Z,97607.09
2019-05-07T17:39:12.893Z,97596.14
2019-05-07T17:41:43.084Z,97604.20
2019-05-07T17:44:13.699Z,97593.57
2019-05-07T17:46:42.971Z,97599.16
2019-05-07T17:49:15.833Z,97600.81
2019-05-07T17:51:45.399Z,97601.52
2019-05-07T17:54:16.566Z,97597.95
2019-05-07T17:56:47.109Z,97598.24
2019-05-07T17:59:18.478Z,97597.25
2019-05-07T18:01:52.883Z,97599.09
2019-05-07T18:04:23.003Z,97594.67
2019-05-07T18:06:53.413Z,97604.95
2019-05-07T18:09:23.335Z,97602.63
2019-05-07T18:11:52.884Z,97601.92
2019-05-07T18:14:23.394Z,97604.66
2019-05-07T18:16:57.021Z,97603.44
2019-05-07T18:19:29.722Z,97598.84
2019-05-07T18:21:59.091Z,97605.92
2019-05-07T18:24:29.490Z,97606.42
2019-05-07T18:27:01.882Z,97613.32
2019-05-07T18:29:32.621Z,97612.44
2019-05-07T18:32:04.673Z,97604.55
2019-05-07T18:34:35.298Z,97608.79
2019-05-07T18:37:07.442Z,97610.43
2019-05-07T18:39:37.977Z,97604.61
2019-05-07T18:42:07.493Z,97607.58
2019-05-07T18:44:37.049Z,97605.31
2019-05-07T18:47:07.749Z,97607.75
2019-05-07T18:49:38.552Z,97605.36
2019-05-07T18:52:09.064Z,97608.77
2019-05-07T18:54:39.364Z,97605.23
2019-05-07T18:57:11.783Z,97611.49
2019-05-07T18:59:42.355Z,97606.00
2019-05-07T19:02:11.866Z,97602.17
2019-05-07T19:04:42.345Z,97607.77
2019-05-07T19:07:13.293Z,97601.05
2019-05-07T19:09:47.742Z,97606.91
2019-05-07T19:12:19.543Z,97605.14
2019-05-07T19:14:48.874Z,97607.66
2019-05-07T19:17:18.297Z,97613.00
2019-05-07T19:19:47.710Z,97605.10
2019-05-07T19:22:18.295Z,97600.23
2019-05-07T19:24:48.637Z,97609.80
2019-05-07T19:27:17.455Z,97605.69
2019-05-07T19:29:49.560Z,97611.11
2019-05-07T19:32:19.107Z,97614.83
2019-05-07T19:34:53.276Z,97615.98
2019-05-07T19:37:23.363Z,97610.72
2019-05-07T19:39:52.732Z,97612.91
2019-05-07T19:42:23.231Z,97608.44
2019-05-07T19:44:53.639Z,97607.31
2019-05-07T19:47:26.174Z,97608.80
2019-05-07T19:49:57.752Z,97611.61
2019-05-07T19:52:27.104Z,97608.76
2019-05-07T19:55:01.464Z,97609.13
2019-05-07T19:57:34.170Z,97606.94
2019-05-07T20:00:03.905Z,97607.64
2019-05-07T20:02:35.980Z,97616.73
2019-05-07T20:05:07.858Z,97609.73
2019-05-07T20:07:38.256Z,97606.20
2019-05-07T20:10:08.972Z,97602.98
2019-05-07T20:12:39.484Z,97611.94
2019-05-07T20:15:09.893Z,97610.23
2019-05-07T20:17:41.943Z,97612.78
2019-05-07T20:20:12.491Z,97610.91
2019-05-07T20:22:43.092Z,97613.20
2019-05-07T20:25:18.666Z,97613.10
2019-05-07T20:27:44.630Z,97609.98
2019-05-07T20:30:15.143Z,97609.09
2019-05-07T20:32:45.545Z,97607.47
2019-05-07T20:35:17.295Z,97608.63
2019-05-07T20:37:46.791Z,97606.69
2019-05-07T20:40:22.577Z,97609.33
2019-05-07T20:42:52.561Z,97599.67
2019-05-07T20:45:23.856Z,97602.09
2019-05-07T20:47:54.827Z,97598.53
2019-05-07T20:50:24.172Z,97602.09
2019-05-07T20:52:54.638Z,97587.51
2019-05-07T20:55:33.198Z,97589.59
2019-05-07T20:58:03.071Z,97591.41
2019-05-07T21:00:35.677Z,97589.36
2019-05-07T21:03:24.483Z,97590.72
2019-05-07T21:05:54.288Z,97594.95
2019-05-07T21:08:24.961Z,97595.19
2019-05-07T21:10:54.366Z,97590.13
2019-05-07T21:13:30.895Z,97594.85
2019-05-07T21:15:55.773Z,97590.23
2019-05-07T21:18:27.314Z,97590.02
2019-05-07T21:20:56.576Z,97587.25
2019-05-07T21:23:28.346Z,97583.56
2019-05-07T21:25:57.717Z,97589.77
2019-05-07T21:28:28.879Z,97593.87
2019-05-07T21:30:58.253Z,97584.56
2019-05-07T21:33:28.602Z,97590.16
2019-05-07T21:36:02.878Z,97592.89
2019-05-07T21:38:32.981Z,97594.14
2019-05-07T21:41:03.469Z,97585.76
2019-05-07T21:43:32.848Z,97591.83
2019-05-07T21:46:02.495Z,97591.23
2019-05-07T21:48:33.037Z,97589.22
2019-05-07T21:51:04.470Z,97592.06
2019-05-07T21:53:38.422Z,97586.99
2019-05-07T21:56:08.868Z,97584.68
2019-05-07T21:58:40.906Z,97581.33
2019-05-07T22:01:17.059Z,97582.48
2019-05-07T22:03:49.342Z,97576.04
2019-05-07T22:06:22.782Z,97585.50
2019-05-07T22:08:54.693Z,97583.09
2019-05-07T22:11:25.467Z,97578.67
2019-05-07T22:13:55.147Z,97578.80
2019-05-07T22:16:25.664Z,97576.61
2019-05-07T22:18:56.061Z,97570.50
2019-05-07T22:21:26.472Z,97567.71
2019-05-07T22:23:55.769Z,97566.34
2019-05-07T22:26:26.687Z,97566.34
2019-05-07T22:28:57.263Z,97562.98
2019-05-07T22:31:34.052Z,97566.97
2019-05-07T22:34:08.621Z,97564.47
2019-05-07T22:36:39.025Z,97559.05
2019-05-07T22:39:09.173Z,97561.41
2019-05-07T22:41:38.501Z,97563.94
2019-05-07T22:44:12.010Z,97560.45
2019-05-07T22:46:42.129Z,97556.93
2019-05-07T22:49:12.370Z,97555.30
2019-05-07T22:51:41.926Z,97549.95
2019-05-07T22:54:12.286Z,97552.00
2019-05-07T22:56:59.132Z,97545.89
2019-05-07T22:59:27.949Z,97543.44
2019-05-07T23:01:57.299Z,97540.63
2019-05-07T23:04:26.589Z,97536.77
2019-05-07T23:06:55.952Z,97536.30
2019-05-07T23:09:26.412Z,97539.41
2019-05-07T23:11:55.674Z,97542.20
2019-05-07T23:14:26.190Z,97537.14
2019-05-07T23:16:55.674Z,97529.86
2019-05-07T23:19:25.048Z,97530.67
2019-05-07T23:21:54.478Z,97525.54
2019-05-07T23:24:25.064Z,97521.98
2019-05-07T23:26:55.389Z,97523.47
2019-05-07T23:29:25.792Z,97519.83
2019-05-07T23:31:55.415Z,97517.92
2019-05-07T23:34:24.673Z,97514.95
2019-05-07T23:36:55.131Z,97516.66
2019-05-07T23:39:26.316Z,97510.11
2019-05-07T23:41:56.786Z,97515.50
2019-05-07T23:44:26.182Z,97507.54
2019-05-07T23:46:54.921Z,97517.88
2019-05-07T23:49:25.330Z,97510.66
2019-05-07T23:51:55.686Z,97506.00
2019-05-07T23:54:26.522Z,97508.00
2019-05-07T23:57:06.020Z,97507.30
2019-05-07T23:59:26.949Z,97511.52
